Time;durP1;ratioP1;P1;durP2;ratioP2;P2;SDS_P1;SDS_P2;PMS_P1;PMS_P2;Temp;Humidity;BMP_temperature;BMP_pressure;BME280_temperature;BME280_humidity;BME280_pressure;Samples;Min_cycle;Max_cycle;Signal;HPM_P1;HPM_P2
2023/08/19 00:01:29;;;;;;;4.78;2.47;;;;;;;22.64;57.08;94686.69;4992201;28;20209;-75
2023/08/19 00:03:56;;;;;;;4.72;2.25;;;;;;;22.67;57.04;94688.66;4991919;28;20240;-75
2023/08/19 00:06:35;;;;;;;2.65;1.85;;;;;;;22.59;57.24;94695.38;4992071;28;20240;-75
2023/08/19 00:09:04;;;;;;;4.00;2.35;;;;;;;22.53;57.59;94690.69;4991470;28;20209;-75
2023/08/19 00:11:32;;;;;;;5.05;2.25;;;;;;;22.53;57.28;94688.72;4991364;28;20213;-75
2023/08/19 00:13:59;;;;;;;4.22;2.15;;;;;;;22.54;57.33;94693.06;4991185;28;20395;-75
2023/08/19 00:16:26;;;;;;;2.05;1.55;;;;;;;22.59;57.28;94694.59;4991487;28;20529;-75
2023/08/19 00:18:53;;;;;;;4.47;2.67;;;;;;;22.49;57.62;94696.22;4991520;28;20217;-76
2023/08/19 00:21:21;;;;;;;7.72;2.55;;;;;;;22.43;58.00;94686.78;4992145;28;20592;-76
2023/08/19 00:23:48;;;;;;;2.70;2.00;;;;;;;22.38;58.15;94698.25;4991813;28;20593;-76
2023/08/19 00:26:18;;;;;;;5.85;2.75;;;;;;;22.36;58.31;94686.84;4991656;28;20245;-76
2023/08/19 00:28:44;;;;;;;3.83;2.67;;;;;;;22.37;58.21;94682.88;4991578;28;20221;-75
2023/08/19 00:31:11;;;;;;;3.70;2.20;;;;;;;22.28;58.48;94685.28;4991624;28;20220;-75
2023/08/19 00:33:38;;;;;;;5.85;2.40;;;;;;;22.25;58.63;94686.09;4991496;28;20212;-75
2023/08/19 00:36:05;;;;;;;4.15;2.53;;;;;;;22.21;58.77;94679.78;4991325;28;20205;-75
2023/08/19 00:38:32;;;;;;;2.50;1.80;;;;;;;22.20;58.78;94667.19;4991155;28;20209;-75
2023/08/19 00:40:59;;;;;;;4.00;2.35;;;;;;;22.15;58.67;94662.06;4991250;28;20264;-74
2023/08/19 00:43:27;;;;;;;5.13;1.95;;;;;;;22.22;58.43;94662.06;4994688;28;20563;-75
2023/08/19 00:45:54;;;;;;;2.83;1.95;;;;;;;22.22;58.28;94659.28;4995596;28;20619;-74
2023/08/19 00:48:22;;;;;;;5.30;2.55;;;;;;;22.26;57.96;94660.06;4995538;28;20577;-75
2023/08/19 00:50:50;;;;;;;3.03;2.30;;;;;;;22.23;58.24;94660.88;4995115;28;20221;-76
2023/08/19 00:53:17;;;;;;;2.50;2.00;;;;;;;22.20;58.32;94667.19;4995411;28;20217;-76
2023/08/19 00:55:44;;;;;;;3.03;2.35;;;;;;;22.13;58.46;94656.19;4995538;28;20570;-75
2023/08/19 00:58:11;;;;;;;6.82;1.80;;;;;;;22.15;57.95;94651.81;4994911;28;20210;-76
2023/08/19 01:00:41;;;;;;;6.00;2.45;;;;;;;22.17;58.23;94663.25;4995069;28;20205;-75
2023/08/19 01:03:08;;;;;;;3.85;2.22;;;;;;;22.16;58.25;94656.16;4995281;28;20619;-75
2023/08/19 01:05:46;;;;;;;6.70;2.17;;;;;;;22.15;58.50;94653.78;4995396;28;20640;-75
2023/08/19 01:08:21;;;;;;;2.10;1.80;;;;;;;22.13;58.27;94665.25;4995090;28;20236;-75
2023/08/19 01:10:57;;;;;;;2.95;2.17;;;;;;;22.16;58.10;94660.88;4995377;28;20568;-76
2023/08/19 01:13:31;;;;;;;6.65;2.80;;;;;;;22.11;58.45;94664.88;4994682;28;20613;-75
2023/08/19 01:16:07;;;;;;;5.95;2.58;;;;;;;22.05;58.95;94665.66;4995056;28;20612;-75
2023/08/19 01:18:37;;;;;;;2.97;2.40;;;;;;;21.91;59.98;94667.25;4994991;28;20585;-75
2023/08/19 01:21:04;;;;;;;3.60;2.40;;;;;;;21.80;60.42;94666.50;4994670;28;20241;-74
2023/08/19 01:23:34;;;;;;;2.88;2.15;;;;;;;21.76;60.44;94671.22;4994595;28;20256;-75
2023/08/19 01:26:02;;;;;;;6.60;2.03;;;;;;;21.80;60.22;94665.72;4994417;28;20209;-75
2023/08/19 01:28:29;;;;;;;4.47;2.20;;;;;;;21.77;60.21;94663.75;4994876;28;20209;-75
2023/08/19 01:30:57;;;;;;;8.48;2.25;;;;;;;21.84;59.87;94664.53;4994660;28;20223;-75
2023/08/19 01:33:25;;;;;;;4.63;2.17;;;;;;;21.87;59.68;94665.69;4994731;28;20249;-75
2023/08/19 01:36:03;;;;;;;2.83;1.90;;;;;;;21.80;59.81;94655.47;4994974;28;20574;-76
2023/08/19 01:38:39;;;;;;;4.88;2.42;;;;;;;21.73;60.39;94666.50;4994912;28;20215;-75
2023/08/19 01:41:09;;;;;;;4.40;2.17;;;;;;;21.74;60.15;94657.06;4994562;28;20263;-75
2023/08/19 01:43:36;;;;;;;4.20;2.47;;;;;;;21.69;60.75;94651.19;4994821;28;20268;-75
2023/08/19 01:46:04;;;;;;;4.60;2.60;;;;;;;21.57;60.73;94652.38;4993928;28;20220;-75
2023/08/19 01:48:30;;;;;;;3.45;2.20;;;;;;;21.55;60.98;94654.75;4994320;28;20213;-74
2023/08/19 01:50:58;;;;;;;3.33;1.77;;;;;;;21.56;60.73;94656.31;4994449;28;20649;-74
2023/08/19 01:53:24;;;;;;;4.18;2.30;;;;;;;21.55;60.74;94652.00;4994251;28;20225;-76
2023/08/19 01:55:51;;;;;;;4.38;2.45;;;;;;;21.50;61.27;94644.13;4994035;28;20214;-75
2023/08/19 01:58:20;;;;;;;7.07;2.72;;;;;;;21.40;61.45;94637.44;4994366;28;20237;-76
2023/08/19 02:00:46;;;;;;;3.30;2.42;;;;;;;21.36;61.65;94652.41;4994372;28;20546;-75
2023/08/19 02:03:13;;;;;;;5.85;2.58;;;;;;;21.36;61.57;94644.13;4994194;28;20209;-75
2023/08/19 02:05:40;;;;;;;4.32;2.30;;;;;;;21.30;61.95;94648.50;4994145;28;20220;-75
2023/08/19 02:08:07;;;;;;;4.90;2.40;;;;;;;21.26;62.04;94652.03;4994319;28;20632;-75
2023/08/19 02:10:34;;;;;;;3.97;2.70;;;;;;;21.26;61.27;94649.28;4994063;28;20202;-75
2023/08/19 02:13:00;;;;;;;6.25;2.67;;;;;;;21.27;61.62;94653.63;4993309;28;20241;-75
2023/08/19 02:15:29;;;;;;;3.05;2.17;;;;;;;21.23;61.72;94654.78;4993820;28;20216;-75
2023/08/19 02:17:55;;;;;;;3.67;2.30;;;;;;;21.26;61.83;94659.50;4993383;28;20210;-75
2023/08/19 02:20:22;;;;;;;4.25;2.53;;;;;;;21.27;61.83;94661.09;4993536;28;20248;-74
2023/08/19 02:22:49;;;;;;;3.72;2.25;;;;;;;21.30;61.72;94657.56;4993984;28;20268;-75
2023/08/19 02:25:16;;;;;;;6.78;2.33;;;;;;;21.22;61.89;94659.50;4993997;28;20213;-75
2023/08/19 02:27:43;;;;;;;4.95;2.90;;;;;;;21.23;62.06;94657.53;4993737;28;20229;-74
2023/08/19 02:30:11;;;;;;;2.38;1.92;;;;;;;21.23;61.97;94661.09;4993092;28;20283;-76
2023/08/19 02:32:41;;;;;;;5.35;2.53;;;;;;;21.18;62.31;94658.69;4993628;28;20213;-76
2023/08/19 02:35:08;;;;;;;2.15;1.95;;;;;;;21.09;62.82;94661.06;4993072;28;20304;-75
2023/08/19 02:37:35;;;;;;;3.85;2.55;;;;;;;21.05;63.04;94660.25;4993472;28;20260;-74
2023/08/19 02:40:02;;;;;;;7.35;3.15;;;;;;;21.04;63.14;94664.22;4992738;28;20268;-74
2023/08/19 02:42:28;;;;;;;6.20;2.85;;;;;;;21.03;63.15;94657.13;4993468;28;20229;-75
2023/08/19 02:44:55;;;;;;;4.50;2.67;;;;;;;21.06;63.00;94648.06;4993189;28;20221;-75
2023/08/19 02:47:22;;;;;;;7.65;2.75;;;;;;;21.00;63.30;94657.91;4992985;28;20229;-76
2023/08/19 02:49:50;;;;;;;4.47;2.55;;;;;;;20.97;63.31;94658.69;4992860;28;20214;-75
2023/08/19 02:52:17;;;;;;;4.18;2.10;;;;;;;20.93;63.44;94664.19;4993441;28;20289;-74
2023/08/19 02:54:44;;;;;;;3.95;2.80;;;;;;;20.93;63.50;94666.16;4993206;28;20217;-76
2023/08/19 02:57:11;;;;;;;4.95;2.72;;;;;;;20.89;63.49;94657.13;4992954;28;20225;-76
2023/08/19 02:59:37;;;;;;;4.45;2.40;;;;;;;20.83;63.79;94642.16;4993071;28;20213;-74
2023/08/19 03:02:04;;;;;;;5.10;2.20;;;;;;;20.78;64.04;94656.31;4988204;28;20213;-75
2023/08/19 03:04:31;;;;;;;4.82;2.95;;;;;;;20.71;64.43;94661.81;4992174;28;20210;-75
2023/08/19 03:06:59;;;;;;;4.78;3.30;;;;;;;20.75;64.15;94657.13;4992938;28;20229;-74
2023/08/19 03:09:26;;;;;;;4.20;2.33;;;;;;;20.70;64.16;94655.53;4992943;28;20220;-75
2023/08/19 03:11:54;;;;;;;6.32;2.85;;;;;;;20.72;64.34;94660.66;4992889;28;20217;-74
2023/08/19 03:14:21;;;;;;;6.00;2.45;;;;;;;20.69;64.16;94661.44;4992336;28;20245;-75
2023/08/19 03:16:49;;;;;;;4.22;2.55;;;;;;;20.72;64.08;94663.41;4992940;28;20659;-74
2023/08/19 03:19:16;;;;;;;7.22;2.28;;;;;;;20.72;63.89;94664.19;4992623;28;20809;-74
2023/08/19 03:21:43;;;;;;;4.38;2.70;;;;;;;20.69;64.04;94662.22;4992545;28;20235;-75
2023/08/19 03:24:11;;;;;;;3.40;2.67;;;;;;;20.64;64.33;94657.09;4992210;28;20214;-75
2023/08/19 03:26:38;;;;;;;4.15;2.78;;;;;;;20.54;64.88;94664.16;4992445;28;20213;-74
2023/08/19 03:29:05;;;;;;;5.82;2.65;;;;;;;20.44;65.32;94662.16;4992225;28;20218;-75
2023/08/19 03:31:32;;;;;;;5.63;2.83;;;;;;;20.34;65.75;94665.66;4992621;28;20213;-75
2023/08/19 03:33:58;;;;;;;4.32;2.75;;;;;;;20.21;66.11;94667.97;4991838;28;20217;-75
2023/08/19 03:36:25;;;;;;;5.05;2.70;;;;;;;20.11;66.54;94665.16;4992675;28;20585;-74
2023/08/19 03:38:52;;;;;;;3.60;2.67;;;;;;;20.09;66.47;94665.56;4991969;28;20210;-77
2023/08/19 03:41:20;;;;;;;10.02;3.38;;;;;;;20.12;66.46;94672.25;4992269;28;20206;-75
2023/08/19 03:43:47;;;;;;;3.88;2.42;;;;;;;20.12;66.47;94666.75;4992068;28;20213;-74
2023/08/19 03:46:14;;;;;;;4.80;2.40;;;;;;;20.12;66.40;94658.50;4992064;28;20213;-74
2023/08/19 03:48:41;;;;;;;3.00;2.25;;;;;;;20.22;66.16;94666.00;4992479;28;20229;-74
2023/08/19 03:51:08;;;;;;;4.00;2.92;;;;;;;20.29;65.72;94660.53;4991734;28;20221;-73
2023/08/19 03:53:34;;;;;;;3.75;2.75;;;;;;;20.36;65.83;94668.84;4992460;28;20213;-74
2023/08/19 03:56:01;;;;;;;5.97;2.90;;;;;;;20.44;65.45;94659.41;4992099;28;20209;-75
2023/08/19 03:58:29;;;;;;;4.57;2.85;;;;;;;20.64;64.71;94659.06;4992226;28;20209;-75
2023/08/19 04:01:04;;;;;;;4.22;2.97;;;;;;;21.01;63.50;94656.75;4991604;28;20585;-75
2023/08/19 04:03:31;;;;;;;3.95;2.83;;;;;;;21.35;62.03;94667.38;4992339;28;20224;-75
2023/08/19 04:05:58;;;;;;;3.08;2.25;;;;;;;21.72;60.71;94664.97;4991891;28;20213;-75
2023/08/19 04:08:25;;;;;;;5.15;2.85;;;;;;;21.96;59.92;94669.63;4991822;28;20229;-75
2023/08/19 04:10:52;;;;;;;5.82;3.05;;;;;;;22.26;59.18;94665.59;4991773;28;20214;-75
2023/08/19 04:13:19;;;;;;;7.00;2.85;;;;;;;22.49;58.18;94663.09;4991457;28;20241;-74
2023/08/19 04:15:47;;;;;;;4.38;2.58;;;;;;;22.97;56.45;94665.19;4991776;28;20217;-75
2023/08/19 04:18:15;;;;;;;4.78;3.13;;;;;;;23.00;56.05;94658.84;4991270;28;20213;-75
2023/08/19 04:20:42;;;;;;;5.00;3.28;;;;;;;23.39;55.09;94670.38;4991348;28;20301;-75
2023/08/19 04:23:10;;;;;;;4.40;3.00;;;;;;;23.57;53.97;94669.44;4991819;28;20709;-75
2023/08/19 04:25:38;;;;;;;6.85;3.42;;;;;;;23.69;53.97;94671.69;4991959;28;20276;-75
2023/08/19 04:28:06;;;;;;;4.22;3.33;;;;;;;23.96;52.59;94669.03;4991811;28;20238;-76
2023/08/19 04:30:33;;;;;;;6.03;3.30;;;;;;;24.02;52.83;94678.47;4991653;28;20213;-76
2023/08/19 04:33:04;;;;;;;3.70;3.10;;;;;;;24.40;52.28;94671.72;4991842;28;20607;-75
2023/08/19 04:35:31;;;;;;;5.15;3.33;;;;;;;24.80;51.27;94672.75;4991514;28;20209;-75
2023/08/19 04:37:58;;;;;;;5.95;3.00;;;;;;;24.90;50.97;94673.00;4991447;28;20643;-76
2023/08/19 04:40:25;;;;;;;5.63;2.97;;;;;;;24.93;50.91;94675.75;4991187;28;20223;-76
2023/08/19 04:42:52;;;;;;;6.43;3.22;;;;;;;24.59;51.61;94678.59;4991722;28;20209;-76
2023/08/19 04:45:19;;;;;;;5.07;3.65;;;;;;;24.69;51.62;94676.88;4991682;28;20217;-76
2023/08/19 04:47:45;;;;;;;5.93;3.30;;;;;;;24.90;51.13;94686.88;4991289;28;20241;-75
2023/08/19 04:50:14;;;;;;;5.82;3.45;;;;;;;26.09;48.36;94686.13;4991099;28;20213;-75
2023/08/19 04:52:40;;;;;;;4.57;3.45;;;;;;;26.24;48.01;94688.63;4991333;28;20224;-76
2023/08/19 04:55:08;;;;;;;9.77;3.63;;;;;;;25.97;48.30;94692.28;4974177;28;20363;-75
2023/08/19 04:57:35;;;;;;;6.45;3.58;;;;;;;26.04;47.88;94681.06;4991860;28;20213;-76
2023/08/19 05:00:02;;;;;;;7.60;3.67;;;;;;;25.94;47.98;94693.16;4991297;28;20202;-76
2023/08/19 05:02:29;;;;;;;4.88;3.33;;;;;;;25.58;48.96;94692.16;4991343;28;20206;-76
2023/08/19 05:04:56;;;;;;;4.70;3.50;;;;;;;25.83;48.35;94698.88;4990843;28;20761;-76
2023/08/19 05:07:24;;;;;;;4.38;2.78;;;;;;;26.46;46.64;94695.34;4991499;28;20597;-76
2023/08/19 05:09:51;;;;;;;4.35;3.53;;;;;;;26.85;46.06;94695.28;4991459;28;20567;-77
2023/08/19 05:12:18;;;;;;;6.50;3.20;;;;;;;27.21;45.05;94694.50;4991283;28;20583;-76
2023/08/19 05:14:45;;;;;;;6.35;2.97;;;;;;;27.13;45.38;94693.09;4991185;28;20224;-76
2023/08/19 05:17:11;;;;;;;6.43;3.40;;;;;;;26.56;46.13;94705.44;4991102;28;20233;-76
2023/08/19 05:19:39;;;;;;;5.18;3.15;;;;;;;26.38;46.63;94697.47;4973681;28;20742;-77
2023/08/19 05:22:05;;;;;;;6.15;3.28;;;;;;;26.48;46.67;94698.47;4991025;28;20213;-75
2023/08/19 05:24:34;;;;;;;5.95;3.55;;;;;;;27.43;44.78;94695.56;4991173;28;20221;-76
2023/08/19 05:27:01;;;;;;;5.60;3.65;;;;;;;28.13;43.30;94692.22;4991434;28;20655;-76
2023/08/19 05:29:28;;;;;;;7.90;4.22;;;;;;;28.17;42.75;94697.66;4994242;28;20595;-76
2023/08/19 05:31:57;;;;;;;5.07;3.70;;;;;;;28.06;42.98;94692.38;4994853;28;20218;-75
2023/08/19 05:34:24;;;;;;;6.05;3.50;;;;;;;28.33;42.46;94694.09;4995486;28;20210;-76
2023/08/19 05:36:51;;;;;;;5.00;3.35;;;;;;;28.56;41.62;94691.84;4994789;28;20218;-76
2023/08/19 05:39:18;;;;;;;7.18;4.15;;;;;;;28.58;41.61;94683.00;4994391;28;20214;-75
2023/08/19 05:41:46;;;;;;;7.85;3.58;;;;;;;28.36;42.59;94690.44;4994864;28;20213;-76
2023/08/19 05:44:13;;;;;;;6.10;3.55;;;;;;;27.80;43.26;94685.13;4994847;28;20210;-77
2023/08/19 05:46:41;;;;;;;6.18;3.58;;;;;;;27.42;44.12;94694.00;4995020;28;20209;-76
2023/08/19 05:49:07;;;;;;;4.35;3.35;;;;;;;28.60;42.56;94675.00;4994412;28;20412;-76
2023/08/19 05:51:36;;;;;;;5.63;3.30;;;;;;;29.07;41.79;94669.63;4994720;28;20357;-76
2023/08/19 05:54:03;;;;;;;7.13;3.38;;;;;;;29.66;40.09;94663.31;4994970;28;20210;-76
2023/08/19 05:56:30;;;;;;;7.22;3.30;;;;;;;29.82;39.68;94664.41;4994303;28;20232;-76
2023/08/19 05:58:58;;;;;;;4.22;3.10;;;;;;;29.34;39.68;94678.31;5007517;28;20210;-78
2023/08/19 06:01:25;;;;;;;9.55;3.17;;;;;;;29.76;39.60;94674.59;4994293;28;20217;-76
2023/08/19 06:03:52;;;;;;;3.95;3.08;;;;;;;30.90;37.63;94671.31;4997788;28;20232;-76
2023/08/19 06:06:19;;;;;;;4.65;3.03;;;;;;;29.84;38.13;94679.47;5004070;28;20221;-76
2023/08/19 06:08:46;;;;;;;2.42;2.10;;;;;;;29.42;37.84;94684.47;4994266;28;20279;-76
2023/08/19 06:11:12;;;;;;;7.85;2.42;;;;;;;30.12;37.79;94669.38;4994217;28;20213;-76
2023/08/19 06:13:39;;;;;;;4.18;2.58;;;;;;;29.94;37.47;94694.31;4993836;28;20257;-75
2023/08/19 06:16:09;;;;;;;6.13;3.05;;;;;;;29.02;38.54;94700.06;4993781;28;20225;-77
2023/08/19 06:18:36;;;;;;;3.83;2.40;;;;;;;28.61;39.73;94704.44;4994160;28;20545;-75
2023/08/19 06:21:04;;;;;;;6.22;2.65;;;;;;;28.72;40.43;94699.31;4993843;28;20209;-76
2023/08/19 06:23:32;;;;;;;3.55;2.53;;;;;;;29.48;39.11;94693.84;4994011;28;20206;-77
2023/08/19 06:25:59;;;;;;;3.33;2.20;;;;;;;29.55;39.51;94693.63;4993914;28;20260;-76
2023/08/19 06:28:26;;;;;;;4.38;2.53;;;;;;;30.63;37.32;94702.69;4993716;28;20770;-76
2023/08/19 06:30:53;;;;;;;6.07;3.13;;;;;;;30.88;37.38;94696.19;4993543;28;20248;-75
2023/08/19 06:33:22;;;;;;;3.03;2.72;;;;;;;31.41;35.98;94694.16;4999355;28;20300;-76
2023/08/19 06:35:50;;;;;;;4.10;2.53;;;;;;;31.74;34.94;94700.81;5000590;28;20221;-76
2023/08/19 06:38:20;;;;;;;4.18;2.47;;;;;;;31.12;35.54;94707.69;4993218;28;20217;-75
2023/08/19 06:41:04;;;;;;;4.03;2.65;;;;;;;30.31;37.61;94715.81;4992673;28;20682;-76
2023/08/19 06:43:32;;;;;;;3.75;2.53;;;;;;;30.32;38.26;94711.00;4994281;28;20221;-76
2023/08/19 06:45:59;;;;;;;6.43;2.92;;;;;;;31.14;37.35;94708.03;4993692;28;20216;-76
2023/08/19 06:48:28;;;;;;;4.32;2.95;;;;;;;31.27;36.89;94711.50;4993557;28;20710;-76
2023/08/19 06:50:56;;;;;;;7.03;2.72;;;;;;;31.20;35.91;94717.38;4993489;28;20214;-78
2023/08/19 06:53:24;;;;;;;3.13;2.70;;;;;;;29.95;38.23;94705.03;4993251;28;20213;-77
2023/08/19 06:56:00;;;;;;;6.18;3.60;;;;;;;30.28;38.03;94705.53;4993764;28;20606;-77
2023/08/19 06:58:30;;;;;;;4.25;2.50;;;;;;;30.67;36.19;94706.16;4993786;28;20201;-76
2023/08/19 07:01:01;;;;;;;5.07;2.55;;;;;;;30.32;36.90;94711.78;4993473;28;20212;-76
2023/08/19 07:03:32;;;;;;;8.13;3.15;;;;;;;30.76;36.73;94700.63;4993422;28;20620;-78
2023/08/19 07:06:00;;;;;;;3.65;2.90;;;;;;;30.59;37.12;94702.06;4992933;28;20213;-77
2023/08/19 07:08:30;;;;;;;5.90;2.65;;;;;;;30.93;36.60;94699.16;4992990;28;20316;-76
2023/08/19 07:10:58;;;;;;;4.28;2.72;;;;;;;31.06;35.06;94699.84;4993255;28;20238;-75
2023/08/19 07:13:26;;;;;;;4.90;2.75;;;;;;;31.19;34.63;94702.59;4992887;28;20253;-75
2023/08/19 07:15:59;;;;;;;3.20;2.90;;;;;;;31.92;33.99;94704.91;4992950;28;20209;-76
2023/08/19 07:18:31;;;;;;;3.42;2.50;;;;;;;30.88;35.27;94708.19;4993378;28;20201;-76
2023/08/19 07:20:59;;;;;;;4.63;2.50;;;;;;;30.67;34.66;94703.34;4993346;28;20256;-76
2023/08/19 07:23:26;;;;;;;4.95;2.10;;;;;;;31.00;34.29;94715.69;4992707;28;20210;-76
2023/08/19 07:25:54;;;;;;;3.05;2.33;;;;;;;30.20;35.07;94697.84;4992986;28;20655;-75
2023/08/19 07:28:24;;;;;;;3.10;2.47;;;;;;;30.37;34.52;94691.63;4992336;28;20229;-74
2023/08/19 07:30:51;;;;;;;3.72;2.72;;;;;;;30.07;35.04;94699.91;4992619;28;20240;-75
2023/08/19 07:33:19;;;;;;;3.15;2.45;;;;;;;29.92;34.97;94700.38;4992644;28;20279;-75
2023/08/19 07:35:47;;;;;;;6.20;2.50;;;;;;;30.25;34.86;94700.84;4992793;28;20714;-75
2023/08/19 07:38:14;;;;;;;3.28;2.38;;;;;;;30.06;34.58;94699.13;4992481;28;20205;-74
2023/08/19 07:40:41;;;;;;;3.70;2.28;;;;;;;29.97;35.28;94699.03;4992415;28;20305;-75
2023/08/19 07:43:08;;;;;;;3.50;2.58;;;;;;;30.04;36.08;94699.59;4992159;28;20217;-75
2023/08/19 07:45:35;;;;;;;5.57;2.67;;;;;;;29.25;37.17;94696.94;4992564;28;20214;-77
2023/08/19 07:48:02;;;;;;;4.32;2.63;;;;;;;29.58;36.81;94698.31;4992446;28;20320;-73
2023/08/19 07:50:29;;;;;;;4.05;2.58;;;;;;;28.54;38.38;94711.00;4992486;28;20214;-76
2023/08/19 07:52:59;;;;;;;3.35;2.58;;;;;;;28.11;39.09;94716.16;4992518;28;20213;-75
2023/08/19 07:55:26;;;;;;;5.40;2.60;;;;;;;28.75;39.22;94712.38;4992333;28;20209;-76
2023/08/19 07:57:53;;;;;;;6.30;3.00;;;;;;;29.13;38.25;94690.13;4992416;28;20256;-75
2023/08/19 08:00:21;;;;;;;5.43;2.63;;;;;;;28.65;38.72;94705.91;4992512;28;20650;-75
2023/08/19 08:02:48;;;;;;;5.38;2.80;;;;;;;28.88;39.57;94721.59;4992355;28;20213;-75
2023/08/19 08:05:15;;;;;;;3.25;2.40;;;;;;;28.93;38.56;94698.72;4992466;28;20573;-75
2023/08/19 08:07:43;;;;;;;3.13;2.50;;;;;;;28.88;38.14;94704.06;4992692;28;20288;-76
2023/08/19 08:10:11;;;;;;;3.15;2.60;;;;;;;28.20;39.94;94725.47;4992063;28;20229;-75
2023/08/19 08:12:38;;;;;;;5.47;2.55;;;;;;;28.43;40.44;94715.31;4991804;28;20745;-76
2023/08/19 08:15:06;;;;;;;7.22;2.30;;;;;;;27.91;41.05;94708.69;4991955;28;20213;-75
2023/08/19 08:17:32;;;;;;;4.13;3.25;;;;;;;28.00;40.66;94710.09;4992283;28;20217;-76
2023/08/19 08:19:59;;;;;;;7.97;3.00;;;;;;;28.22;41.02;94711.88;4991886;28;20210;-75
2023/08/19 08:22:26;;;;;;;2.88;2.55;;;;;;;28.73;40.19;94714.84;4991665;28;20217;-75
2023/08/19 08:24:53;;;;;;;5.65;2.53;;;;;;;28.81;39.04;94707.88;4991895;28;20217;-76
2023/08/19 08:27:21;;;;;;;3.55;2.70;;;;;;;29.31;39.34;94706.34;4992004;28;20253;-75
2023/08/19 08:29:48;;;;;;;6.25;2.78;;;;;;;29.18;39.82;94702.75;4992061;28;20233;-76
2023/08/19 08:32:15;;;;;;;3.50;2.80;;;;;;;28.94;38.94;94705.09;4991887;28;20260;-77
2023/08/19 08:34:42;;;;;;;5.60;3.00;;;;;;;28.52;39.92;94690.38;4992350;28;20585;-74
2023/08/19 08:37:09;;;;;;;6.75;2.58;;;;;;;29.05;38.67;94693.59;4991838;28;20213;-76
2023/08/19 08:39:35;;;;;;;3.47;2.70;;;;;;;29.28;38.25;94696.06;4992046;28;20296;-76
2023/08/19 08:42:03;;;;;;;5.05;2.85;;;;;;;28.99;40.00;94701.75;4991770;28;20209;-77
2023/08/19 08:44:33;;;;;;;4.22;2.50;;;;;;;28.80;40.67;94700.72;4991785;28;20259;-76
2023/08/19 08:47:02;;;;;;;4.72;2.80;;;;;;;28.43;40.29;94699.34;4991871;28;20210;-76
2023/08/19 08:49:29;;;;;;;3.60;2.45;;;;;;;28.38;39.86;94713.06;4991451;28;20234;-78
2023/08/19 08:51:57;;;;;;;6.03;2.50;;;;;;;28.37;39.76;94712.28;4992009;28;20209;-78
2023/08/19 08:54:24;;;;;;;4.88;2.40;;;;;;;28.05;40.75;94715.09;4992114;28;20218;-75
2023/08/19 08:56:51;;;;;;;3.75;3.10;;;;;;;28.66;39.84;94701.09;4991829;28;20300;-76
2023/08/19 08:59:18;;;;;;;6.78;2.67;;;;;;;29.48;38.09;94688.28;4991771;28;20213;-76
2023/08/19 09:01:47;;;;;;;2.90;2.50;;;;;;;29.47;38.74;94697.88;4991958;28;20675;-75
2023/08/19 09:04:15;;;;;;;5.00;2.38;;;;;;;29.72;38.13;94696.28;4994731;28;20576;-76
2023/08/19 09:06:44;;;;;;;5.47;3.00;;;;;;;29.38;37.78;94696.97;4995863;28;20300;-79
2023/08/19 09:09:13;;;;;;;3.85;2.83;;;;;;;29.15;38.45;94695.28;4987898;28;20702;-75
2023/08/19 09:11:42;;;;;;;4.97;2.25;;;;;;;29.36;37.31;94686.25;4990146;28;20214;-77
2023/08/19 09:14:18;;;;;;;4.03;2.25;;;;;;;29.21;36.36;94707.47;4994825;28;20256;-79
2023/08/19 09:16:46;;;;;;;2.65;1.98;;;;;;;28.88;35.77;94702.06;4995416;28;20213;-80
2023/08/19 09:19:13;;;;;;;2.25;1.80;;;;;;;29.16;36.85;94692.03;4995217;28;20213;-77
2023/08/19 09:21:40;;;;;;;3.13;2.13;;;;;;;29.56;36.24;94688.81;4995617;28;20209;-75
2023/08/19 09:24:08;;;;;;;3.65;2.00;;;;;;;29.32;36.11;94691.16;4995186;28;20558;-77
2023/08/19 09:26:37;;;;;;;5.43;2.25;;;;;;;29.62;36.24;94687.03;4995114;28;20221;-74
2023/08/19 09:29:06;;;;;;;4.97;2.40;;;;;;;29.03;35.89;94724.75;4995227;28;20283;-76
2023/08/19 09:31:33;;;;;;;3.28;2.20;;;;;;;28.62;36.86;94690.06;4995157;28;20305;-77
2023/08/19 09:34:01;;;;;;;3.50;1.90;;;;;;;28.94;34.96;94689.16;4995235;28;20210;-77
2023/08/19 09:36:29;;;;;;;7.97;2.13;;;;;;;28.78;35.30;94691.97;4995322;28;20555;-74
2023/08/19 09:38:56;;;;;;;3.83;2.40;;;;;;;28.86;35.45;94687.78;4995438;28;20239;-76
2023/08/19 09:41:27;;;;;;;3.05;2.17;;;;;;;28.89;35.79;94691.69;4976686;28;20245;-76
2023/08/19 09:43:54;;;;;;;3.40;2.03;;;;;;;28.89;36.40;94695.25;4994811;28;20241;-76
2023/08/19 09:46:21;;;;;;;5.35;2.28;;;;;;;29.13;36.24;94694.94;5007389;28;20264;-79
2023/08/19 09:48:54;;;;;;;3.75;2.20;;;;;;;29.51;36.10;94698.56;4976855;28;20264;-76
2023/08/19 09:51:26;;;;;;;3.70;2.03;;;;;;;29.46;35.19;94682.34;4994555;28;20217;-75
2023/08/19 09:53:53;;;;;;;6.13;2.10;;;;;;;29.74;34.39;94677.06;4994827;28;20229;-73
2023/08/19 09:56:21;;;;;;;2.80;2.40;;;;;;;29.89;34.48;94680.94;4994133;28;20268;-75
2023/08/19 09:58:50;;;;;;;4.50;2.30;;;;;;;29.84;34.57;94684.28;4994704;28;20638;-76
2023/08/19 10:01:17;;;;;;;3.67;1.95;;;;;;;29.73;34.62;94676.28;4994357;28;20574;-75
2023/08/19 10:03:44;;;;;;;2.30;2.10;;;;;;;29.61;35.05;94677.88;4994788;28;20213;-76
2023/08/19 10:06:11;;;;;;;2.97;2.13;;;;;;;29.89;35.45;94683.72;4994222;28;20308;-76
2023/08/19 10:08:44;;;;;;;2.28;2.03;;;;;;;30.15;34.76;94674.06;4994176;28;20206;-75
2023/08/19 10:11:13;;;;;;;6.25;2.22;;;;;;;30.08;35.48;94685.47;4994366;28;20276;-76
2023/08/19 10:13:41;;;;;;;3.00;2.05;;;;;;;30.54;34.54;94683.06;4993760;28;20287;-76
2023/08/19 10:16:09;;;;;;;3.75;2.50;;;;;;;30.80;33.88;94678.88;4993241;28;20212;-75
2023/08/19 10:18:41;;;;;;;3.47;2.22;;;;;;;30.22;34.47;94668.19;4993993;28;20217;-75
2023/08/19 10:21:11;;;;;;;3.08;2.45;;;;;;;29.84;34.92;94670.31;4994248;28;20205;-75
2023/08/19 10:23:44;;;;;;;3.92;2.67;;;;;;;30.15;35.36;94679.66;4994233;28;20256;-76
2023/08/19 10:26:11;;;;;;;4.85;2.22;;;;;;;30.02;34.82;94678.91;4993468;28;20217;-75
2023/08/19 10:28:38;;;;;;;3.80;2.30;;;;;;;29.92;34.83;94671.66;4994317;28;20548;-75
2023/08/19 10:31:09;;;;;;;3.22;2.30;;;;;;;30.18;34.52;94673.16;4993930;28;20237;-76
2023/08/19 10:33:42;;;;;;;4.80;2.08;;;;;;;29.96;34.23;94672.28;4994155;28;20206;-75
2023/08/19 10:36:10;;;;;;;3.35;2.08;;;;;;;30.08;34.09;94671.50;4993904;28;20214;-75
2023/08/19 10:38:56;;;;;;;3.22;2.38;;;;;;;30.40;33.31;94662.75;4994149;28;20214;-75
2023/08/19 10:41:28;;;;;;;2.72;2.38;;;;;;;30.05;33.80;94658.44;4993893;28;20209;-76
2023/08/19 10:43:59;;;;;;;3.25;2.20;;;;;;;30.40;34.39;94662.75;4993964;28;20662;-75
2023/08/19 10:46:28;;;;;;;3.50;2.20;;;;;;;30.21;33.97;94658.25;4993655;28;20378;-76
2023/08/19 10:48:55;;;;;;;2.20;1.95;;;;;;;30.19;33.93;94669.13;4993662;28;20224;-75
2023/08/19 10:51:21;;;;;;;4.35;2.50;;;;;;;30.33;33.13;94663.03;4993543;28;20221;-75
2023/08/19 10:54:06;;;;;;;4.43;2.42;;;;;;;30.15;33.77;94674.06;4993710;28;20217;-76
2023/08/19 10:56:33;;;;;;;2.85;2.38;;;;;;;30.14;33.87;94672.50;4993490;28;20209;-75
2023/08/19 10:59:00;;;;;;;4.03;2.28;;;;;;;30.38;33.78;94668.00;4993910;28;20570;-76
2023/08/19 11:01:30;;;;;;;2.95;2.15;;;;;;;30.96;33.37;94675.88;4993471;28;20217;-76
2023/08/19 11:03:58;;;;;;;5.95;2.38;;;;;;;31.48;32.35;94660.25;4993971;28;20205;-75
2023/08/19 11:06:29;;;;;;;5.32;2.35;;;;;;;31.41;32.07;94666.13;4993175;28;20756;-75
2023/08/19 11:08:59;;;;;;;3.63;2.10;;;;;;;31.09;33.01;94672.97;4993440;28;20198;-77
2023/08/19 11:11:27;;;;;;;2.83;2.13;;;;;;;31.34;32.93;94678.41;4993250;28;20229;-75
2023/08/19 11:13:55;;;;;;;5.28;2.53;;;;;;;30.91;33.53;94673.66;4992765;28;20649;-76
2023/08/19 11:16:25;;;;;;;5.18;2.55;;;;;;;30.83;33.47;94650.00;4992687;28;20300;-72
2023/08/19 11:18:54;;;;;;;4.30;3.17;;;;;;;30.66;34.74;94679.41;4999642;28;20209;-74
2023/08/19 11:21:21;;;;;;;7.18;2.50;;;;;;;31.39;33.52;94668.63;4998240;28;20767;-75
2023/08/19 11:23:48;;;;;;;3.15;2.00;;;;;;;31.76;32.46;94664.69;4992865;28;20644;-74
2023/08/19 11:26:17;;;;;;;5.60;2.38;;;;;;;31.70;32.97;94666.56;4992557;28;20276;-75
2023/08/19 11:28:44;;;;;;;2.95;1.98;;;;;;;31.58;32.90;94659.00;4992800;28;20209;-76
2023/08/19 11:31:11;;;;;;;4.63;2.50;;;;;;;31.66;32.93;94657.53;4992929;28;20693;-77
2023/08/19 11:33:38;;;;;;;3.92;2.50;;;;;;;32.10;33.04;94654.47;4993402;28;20563;-77
2023/08/19 11:36:05;;;;;;;5.50;2.40;;;;;;;32.48;33.04;94657.59;4993406;28;20592;-77
2023/08/19 11:38:32;;;;;;;4.10;2.20;;;;;;;31.98;32.77;94647.00;4993012;28;20214;-78